sensor_id;sensor_type;location;lat;lon;timestamp;pressure;altitude;pressure_sealevel;temperature;humidity
30584;BME280;17357;59.404;18.414;2022-08-19T00:00:30;101510.22;;;22.51;74.00
30584;BME280;17357;59.404;18.414;2022-08-19T00:02:55;101505.47;;;22.56;74.21
30584;BME280;17357;59.404;18.414;2022-08-19T00:05:22;101500.25;;;22.58;74.23
30584;BME280;17357;59.404;18.414;2022-08-19T00:07:48;101504.72;;;22.59;74.16
30584;BME280;17357;59.404;18.414;2022-08-19T00:10:15;101506.38;;;22.60;74.32
30584;BME280;17357;59.404;18.414;2022-08-19T00:12:40;101502.78;;;22.63;74.49
30584;BME280;17357;59.404;18.414;2022-08-19T00:15:08;101508.00;;;22.61;74.26
30584;BME280;17357;59.404;18.414;2022-08-19T00:17:37;101503.97;;;22.62;74.61
30584;BME280;17357;59.404;18.414;2022-08-19T00:20:03;101496.25;;;22.59;74.74
30584;BME280;17357;59.404;18.414;2022-08-19T00:22:28;101494.31;;;22.63;74.75
30584;BME280;17357;59.404;18.414;2022-08-19T00:24:54;101506.09;;;22.65;74.77
30584;BME280;17357;59.404;18.414;2022-08-19T00:27:19;101504.06;;;22.65;74.91
30584;BME280;17357;59.404;18.414;2022-08-19T00:29:44;101504.88;;;22.66;74.94
30584;BME280;17357;59.404;18.414;2022-08-19T00:32:09;101505.31;;;22.68;74.92
30584;BME280;17357;59.404;18.414;2022-08-19T00:34:35;101502.97;;;22.70;74.95
30584;BME280;17357;59.404;18.414;2022-08-19T00:37:01;101496.47;;;22.69;74.95
30584;BME280;17357;59.404;18.414;2022-08-19T00:39:26;101491.28;;;22.71;74.75
30584;BME280;17357;59.404;18.414;2022-08-19T00:41:51;101486.09;;;22.73;74.54
30584;BME280;17357;59.404;18.414;2022-08-19T00:44:23;101486.00;;;22.70;74.48
30584;BME280;17357;59.404;18.414;2022-08-19T00:46:50;101484.53;;;22.76;74.67
30584;BME280;17357;59.404;18.414;2022-08-19T00:49:24;101488.63;;;22.78;74.37
30584;BME280;17357;59.404;18.414;2022-08-19T00:51:55;101485.78;;;22.78;74.41
30584;BME280;17357;59.404;18.414;2022-08-19T00:54:22;101475.41;;;22.82;74.24
30584;BME280;17357;59.404;18.414;2022-08-19T00:56:48;101477.00;;;22.83;73.90
30584;BME280;17357;59.404;18.414;2022-08-19T00:59:15;101474.13;;;22.80;73.84
30584;BME280;17357;59.404;18.414;2022-08-19T01:01:43;101476.28;;;22.86;73.64
30584;BME280;17357;59.404;18.414;2022-08-19T01:04:09;101479.56;;;22.88;73.46
30584;BME280;17357;59.404;18.414;2022-08-19T01:06:36;101486.00;;;22.89;73.73
30584;BME280;17357;59.404;18.414;2022-08-19T01:09:03;101480.81;;;22.91;73.14
30584;BME280;17357;59.404;18.414;2022-08-19T01:11:31;101489.31;;;22.91;73.34
30584;BME280;17357;59.404;18.414;2022-08-19T01:13:59;101493.41;;;22.93;73.39
30584;BME280;17357;59.404;18.414;2022-08-19T01:16:26;101488.94;;;22.92;73.71
30584;BME280;17357;59.404;18.414;2022-08-19T01:18:53;101476.03;;;22.95;73.98
30584;BME280;17357;59.404;18.414;2022-08-19T01:21:33;101474.44;;;22.94;73.98
30584;BME280;17357;59.404;18.414;2022-08-19T01:24:00;101464.00;;;22.98;74.04
30584;BME280;17357;59.404;18.414;2022-08-19T01:26:26;101462.34;;;22.97;73.59
30584;BME280;17357;59.404;18.414;2022-08-19T01:28:55;101461.91;;;22.95;73.12
30584;BME280;17357;59.404;18.414;2022-08-19T01:31:24;101457.06;;;22.96;72.80
30584;BME280;17357;59.404;18.414;2022-08-19T01:33:51;101448.06;;;22.90;72.54
30584;BME280;17357;59.404;18.414;2022-08-19T01:36:30;101453.34;;;22.91;72.36
30584;BME280;17357;59.404;18.414;2022-08-19T01:38:57;101457.00;;;22.92;72.14
30584;BME280;17357;59.404;18.414;2022-08-19T01:41:23;101460.28;;;22.94;72.03
30584;BME280;17357;59.404;18.414;2022-08-19T01:43:49;101459.47;;;22.93;71.60
30584;BME280;17357;59.404;18.414;2022-08-19T01:46:15;101460.28;;;22.94;71.47
30584;BME280;17357;59.404;18.414;2022-08-19T01:48:42;101463.53;;;22.96;71.45
30584;BME280;17357;59.404;18.414;2022-08-19T01:51:09;101462.34;;;22.97;71.32
30584;BME280;17357;59.404;18.414;2022-08-19T01:53:35;101460.00;;;22.99;71.27
30584;BME280;17357;59.404;18.414;2022-08-19T01:56:01;101466.06;;;23.01;70.98
30584;BME280;17357;59.404;18.414;2022-08-19T01:58:32;101465.63;;;22.99;71.08
30584;BME280;17357;59.404;18.414;2022-08-19T02:01:01;101457.47;;;22.94;71.20
30584;BME280;17357;59.404;18.414;2022-08-19T02:03:26;101461.63;;;23.00;70.82
30584;BME280;17357;59.404;18.414;2022-08-19T02:05:59;101453.03;;;22.97;70.47
30584;BME280;17357;59.404;18.414;2022-08-19T02:08:26;101458.78;;;23.00;70.20
30584;BME280;17357;59.404;18.414;2022-08-19T02:10:52;101448.22;;;22.97;70.34
30584;BME280;17357;59.404;18.414;2022-08-19T02:13:18;101460.00;;;22.99;70.01
30584;BME280;17357;59.404;18.414;2022-08-19T02:15:43;101453.94;;;23.01;69.86
30584;BME280;17357;59.404;18.414;2022-08-19T02:18:08;101460.88;;;23.03;70.02
30584;BME280;17357;59.404;18.414;2022-08-19T02:20:35;101455.97;;;23.00;70.02
30584;BME280;17357;59.404;18.414;2022-08-19T02:23:01;101455.56;;;23.02;69.83
30584;BME280;17357;59.404;18.414;2022-08-19T02:25:27;101459.59;;;23.01;70.01
30584;BME280;17357;59.404;18.414;2022-08-19T02:27:52;101460.41;;;23.01;69.73
30584;BME280;17357;59.404;18.414;2022-08-19T02:30:19;101462.88;;;23.03;69.67
30584;BME280;17357;59.404;18.414;2022-08-19T02:32:45;101443.44;;;23.01;69.60
30584;BME280;17357;59.404;18.414;2022-08-19T02:35:14;101445.06;;;23.02;69.95
30584;BME280;17357;59.404;18.414;2022-08-19T02:37:40;101453.25;;;23.07;69.91
30584;BME280;17357;59.404;18.414;2022-08-19T02:40:25;101443.91;;;23.03;70.20
30584;BME280;17357;59.404;18.414;2022-08-19T02:42:50;101450.44;;;23.07;70.28
30584;BME280;17357;59.404;18.414;2022-08-19T02:45:15;101452.06;;;23.08;69.96
30584;BME280;17357;59.404;18.414;2022-08-19T02:47:41;101453.25;;;23.07;70.38
30584;BME280;17357;59.404;18.414;2022-08-19T02:50:06;101458.09;;;23.07;70.61
30584;BME280;17357;59.404;18.414;2022-08-19T02:52:33;101450.88;;;23.09;70.37
30584;BME280;17357;59.404;18.414;2022-08-19T02:54:59;101452.06;;;23.08;70.45
30584;BME280;17357;59.404;18.414;2022-08-19T02:57:25;101446.00;;;23.06;70.69
30584;BME280;17357;59.404;18.414;2022-08-19T02:59:51;101403.97;;;23.08;70.47
30584;BME280;17357;59.404;18.414;2022-08-19T03:02:16;101402.34;;;23.07;70.67
30584;BME280;17357;59.404;18.414;2022-08-19T03:04:42;101394.66;;;23.08;71.16
30584;BME280;17357;59.404;18.414;2022-08-19T03:07:07;101484.84;;;23.09;71.28
30584;BME280;17357;59.404;18.414;2022-08-19T03:09:33;101452.06;;;23.08;71.72
30584;BME280;17357;59.404;18.414;2022-08-19T03:11:58;101436.28;;;23.07;71.26
30584;BME280;17357;59.404;18.414;2022-08-19T03:14:23;101428.25;;;23.09;71.71
30584;BME280;17357;59.404;18.414;2022-08-19T03:16:51;101435.47;;;23.07;71.51
30584;BME280;17357;59.404;18.414;2022-08-19T03:19:18;101436.69;;;23.06;71.93
30584;BME280;17357;59.404;18.414;2022-08-19T03:21:44;101430.56;;;23.04;72.02
30584;BME280;17357;59.404;18.414;2022-08-19T03:24:11;101435.09;;;23.08;72.09
30584;BME280;17357;59.404;18.414;2022-08-19T03:26:45;101432.13;;;23.01;72.69
30584;BME280;17357;59.404;18.414;2022-08-19T03:29:12;101435.84;;;23.05;72.95
30584;BME280;17357;59.404;18.414;2022-08-19T03:31:38;101425.41;;;23.09;73.01
30584;BME280;17357;59.404;18.414;2022-08-19T03:34:04;101439.56;;;23.09;73.92
30584;BME280;17357;59.404;18.414;2022-08-19T03:36:29;101437.09;;;23.08;73.31
30584;BME280;17357;59.404;18.414;2022-08-19T03:38:57;101437.50;;;23.06;73.60
30584;BME280;17357;59.404;18.414;2022-08-19T03:41:28;101437.50;;;23.06;73.23
30584;BME280;17357;59.404;18.414;2022-08-19T03:43:54;101439.88;;;23.04;73.14
30584;BME280;17357;59.404;18.414;2022-08-19T03:46:26;101428.88;;;22.99;72.97
30584;BME280;17357;59.404;18.414;2022-08-19T03:48:53;101428.09;;;23.02;72.79
30584;BME280;17357;59.404;18.414;2022-08-19T03:51:26;101433.69;;;22.99;72.59
30584;BME280;17357;59.404;18.414;2022-08-19T03:53:54;101434.94;;;23.01;72.21
30584;BME280;17357;59.404;18.414;2022-08-19T03:56:19;101439.41;;;23.02;71.91
30584;BME280;17357;59.404;18.414;2022-08-19T03:58:45;101440.59;;;23.01;72.11
30584;BME280;17357;59.404;18.414;2022-08-19T04:01:13;101439.78;;;23.01;72.02
30584;BME280;17357;59.404;18.414;2022-08-19T04:03:40;101440.59;;;23.01;71.93
30584;BME280;17357;59.404;18.414;2022-08-19T04:06:26;101447.69;;;23.11;72.21
30584;BME280;17357;59.404;18.414;2022-08-19T04:08:53;101441.34;;;23.17;72.33
30584;BME280;17357;59.404;18.414;2022-08-19T04:11:26;101446.75;;;23.26;72.34
30584;BME280;17357;59.404;18.414;2022-08-19T04:13:53;101437.59;;;23.32;71.67
30584;BME280;17357;59.404;18.414;2022-08-19T04:16:21;101428.47;;;23.43;71.45
30584;BME280;17357;59.404;18.414;2022-08-19T04:18:47;101433.97;;;23.55;71.56
30584;BME280;17357;59.404;18.414;2022-08-19T04:21:18;101438.44;;;23.56;71.73
30584;BME280;17357;59.404;18.414;2022-08-19T04:23:45;101436.63;;;23.67;71.66
30584;BME280;17357;59.404;18.414;2022-08-19T04:26:19;101446.31;;;23.66;71.75
30584;BME280;17357;59.404;18.414;2022-08-19T04:28:45;101444.88;;;23.76;71.71
30584;BME280;17357;59.404;18.414;2022-08-19T04:31:17;101450.13;;;23.77;71.85
30584;BME280;17357;59.404;18.414;2022-08-19T04:33:43;101455.47;;;23.82;72.10
30584;BME280;17357;59.404;18.414;2022-08-19T04:36:16;101453.47;;;23.83;72.21
30584;BME280;17357;59.404;18.414;2022-08-19T04:38:42;101452.03;;;23.92;72.13
30584;BME280;17357;59.404;18.414;2022-08-19T04:41:07;101460.53;;;23.92;72.25
30584;BME280;17357;59.404;18.414;2022-08-19T04:43:51;101462.16;;;23.93;72.71
30584;BME280;17357;59.404;18.414;2022-08-19T04:46:16;101454.53;;;23.97;73.20
30584;BME280;17357;59.404;18.414;2022-08-19T04:48:42;101454.56;;;24.01;73.23
30584;BME280;17357;59.404;18.414;2022-08-19T04:51:10;101450.09;;;24.00;73.47
30584;BME280;17357;59.404;18.414;2022-08-19T04:53:39;101455.84;;;24.03;73.45
30584;BME280;17357;59.404;18.414;2022-08-19T04:56:10;101457.06;;;24.06;73.77
30584;BME280;17357;59.404;18.414;2022-08-19T04:58:37;101459.09;;;24.05;74.09
30584;BME280;17357;59.404;18.414;2022-08-19T05:01:03;101456.72;;;24.07;74.26
30584;BME280;17357;59.404;18.414;2022-08-19T05:03:29;101446.19;;;24.08;74.11
30584;BME280;17357;59.404;18.414;2022-08-19T05:05:58;101455.19;;;24.13;74.72
30584;BME280;17357;59.404;18.414;2022-08-19T05:08:23;101452.78;;;24.15;74.59
30584;BME280;17357;59.404;18.414;2022-08-19T05:10:50;101439.03;;;24.17;74.73
30584;BME280;17357;59.404;18.414;2022-08-19T05:13:18;101449.66;;;24.21;74.82
30584;BME280;17357;59.404;18.414;2022-08-19T05:15:44;101433.47;;;24.21;75.06
30584;BME280;17357;59.404;18.414;2022-08-19T05:18:10;101441.59;;;24.23;74.75
30584;BME280;17357;59.404;18.414;2022-08-19T05:20:54;101433.84;;;24.20;75.19
30584;BME280;17357;59.404;18.414;2022-08-19T05:23:37;101428.66;;;24.25;75.07
30584;BME280;17357;59.404;18.414;2022-08-19T05:26:03;101434.34;;;24.25;75.25
30584;BME280;17357;59.404;18.414;2022-08-19T05:28:29;101435.16;;;24.26;75.01
30584;BME280;17357;59.404;18.414;2022-08-19T05:30:54;101418.53;;;24.24;75.20
30584;BME280;17357;59.404;18.414;2022-08-19T05:33:21;101425.47;;;24.27;75.33
30584;BME280;17357;59.404;18.414;2022-08-19T05:35:47;101428.66;;;24.25;75.37
30584;BME280;17357;59.404;18.414;2022-08-19T05:38:13;101422.25;;;24.28;75.52
30584;BME280;17357;59.404;18.414;2022-08-19T05:40:39;101429.53;;;24.29;75.42
30584;BME280;17357;59.404;18.414;2022-08-19T05:43:05;101423.84;;;24.29;75.38
30584;BME280;17357;59.404;18.414;2022-08-19T05:45:32;101425.56;;;24.34;75.69
30584;BME280;17357;59.404;18.414;2022-08-19T05:47:57;101419.91;;;24.34;75.62
30584;BME280;17357;59.404;18.414;2022-08-19T05:50:24;101423.94;;;24.33;76.04
30584;BME280;17357;59.404;18.414;2022-08-19T05:52:51;101418.19;;;24.29;76.45
30584;BME280;17357;59.404;18.414;2022-08-19T05:55:17;101408.56;;;24.34;76.45
30584;BME280;17357;59.404;18.414;2022-08-19T05:57:45;101419.13;;;24.37;76.75
30584;BME280;17357;59.404;18.414;2022-08-19T06:00:11;101409.06;;;24.43;76.86
30584;BME280;17357;59.404;18.414;2022-08-19T06:02:37;101407.88;;;24.44;76.51
30584;BME280;17357;59.404;18.414;2022-08-19T06:05:04;101413.44;;;24.37;76.48
30584;BME280;17357;59.404;18.414;2022-08-19T06:07:32;101415.94;;;24.42;76.25
30584;BME280;17357;59.404;18.414;2022-08-19T06:09:58;101407.03;;;24.40;76.24
30584;BME280;17357;59.404;18.414;2022-08-19T06:12:23;101409.84;;;24.40;75.89
30584;BME280;17357;59.404;18.414;2022-08-19T06:14:53;101387.44;;;24.31;75.92
30584;BME280;17357;59.404;18.414;2022-08-19T06:17:20;101398.94;;;24.42;75.60
30584;BME280;17357;59.404;18.414;2022-08-19T06:19:46;101398.22;;;24.48;75.08
30584;BME280;17357;59.404;18.414;2022-08-19T06:22:11;101393.69;;;24.44;75.16
30584;BME280;17357;59.404;18.414;2022-08-19T06:24:38;101394.16;;;24.46;74.91
30584;BME280;17357;59.404;18.414;2022-08-19T06:27:03;101392.88;;;24.43;75.10
30584;BME280;17357;59.404;18.414;2022-08-19T06:29:30;101389.25;;;24.46;74.53
30584;BME280;17357;59.404;18.414;2022-08-19T06:32:00;101396.56;;;24.47;74.20
30584;BME280;17357;59.404;18.414;2022-08-19T06:34:27;101390.88;;;24.44;74.36
30584;BME280;17357;59.404;18.414;2022-08-19T06:36:54;101402.59;;;24.42;74.86
30584;BME280;17357;59.404;18.414;2022-08-19T06:39:24;101407.88;;;24.44;74.75
30584;BME280;17357;59.404;18.414;2022-08-19T06:41:53;101413.09;;;24.42;74.56
30584;BME280;17357;59.404;18.414;2022-08-19T06:44:21;101415.22;;;24.48;74.61
30584;BME280;17357;59.404;18.414;2022-08-19T06:46:46;101402.22;;;24.44;74.80
30584;BME280;17357;59.404;18.414;2022-08-19T06:49:12;101431.09;;;24.53;74.49
30584;BME280;17357;59.404;18.414;2022-08-19T06:51:49;101427.38;;;24.49;74.80
30584;BME280;17357;59.404;18.414;2022-08-19T06:54:16;101432.28;;;24.52;74.97
30584;BME280;17357;59.404;18.414;2022-08-19T06:56:42;101416.09;;;24.52;74.85
30584;BME280;17357;59.404;18.414;2022-08-19T06:59:18;101416.03;;;24.49;75.10
30584;BME280;17357;59.404;18.414;2022-08-19T07:01:49;101425.00;;;24.51;75.15
30584;BME280;17357;59.404;18.414;2022-08-19T07:04:19;101423.34;;;24.50;74.91
30584;BME280;17357;59.404;18.414;2022-08-19T07:06:45;101412.88;;;24.54;75.24
30584;BME280;17357;59.404;18.414;2022-08-19T07:09:13;101414.06;;;24.53;75.57
30584;BME280;17357;59.404;18.414;2022-08-19T07:11:38;101406.44;;;24.57;75.68
30584;BME280;17357;59.404;18.414;2022-08-19T07:14:04;101413.72;;;24.58;75.85
30584;BME280;17357;59.404;18.414;2022-08-19T07:16:30;101417.00;;;24.60;75.64
30584;BME280;17357;59.404;18.414;2022-08-19T07:18:55;101401.88;;;24.49;74.71
30584;BME280;17357;59.404;18.414;2022-08-19T07:21:24;101409.59;;;24.52;74.75
30584;BME280;17357;59.404;18.414;2022-08-19T07:23:51;101417.69;;;24.50;74.25
30584;BME280;17357;59.404;18.414;2022-08-19T07:26:28;101419.66;;;24.46;72.84
30584;BME280;17357;59.404;18.414;2022-08-19T07:28:56;101424.91;;;24.44;71.73
30584;BME280;17357;59.404;18.414;2022-08-19T07:31:23;101422.91;;;24.48;71.97
30584;BME280;17357;59.404;18.414;2022-08-19T07:33:50;101422.97;;;24.51;72.87
30584;BME280;17357;59.404;18.414;2022-08-19T07:36:18;101420.94;;;24.52;73.73
30584;BME280;17357;59.404;18.414;2022-08-19T07:38:47;101422.91;;;24.48;72.65
30584;BME280;17357;59.404;18.414;2022-08-19T07:41:18;101416.00;;;24.45;72.14
30584;BME280;17357;59.404;18.414;2022-08-19T07:43:43;101416.16;;;24.30;71.80
30584;BME280;17357;59.404;18.414;2022-08-19T07:46:10;101417.59;;;24.43;71.36
30584;BME280;17357;59.404;18.414;2022-08-19T07:48:35;101412.75;;;24.47;70.54
30584;BME280;17357;59.404;18.414;2022-08-19T07:51:04;101408.34;;;24.49;71.13
30584;BME280;17357;59.404;18.414;2022-08-19T07:53:31;101414.53;;;24.59;71.61
30584;BME280;17357;59.404;18.414;2022-08-19T07:55:58;101409.66;;;24.55;71.23
30584;BME280;17357;59.404;18.414;2022-08-19T07:58:26;101404.44;;;24.58;71.79
30584;BME280;17357;59.404;18.414;2022-08-19T08:00:52;101416.63;;;24.62;71.81
30584;BME280;17357;59.404;18.414;2022-08-19T08:03:19;101414.59;;;24.62;71.73
30584;BME280;17357;59.404;18.414;2022-08-19T08:05:45;101419.47;;;24.62;72.18
30584;BME280;17357;59.404;18.414;2022-08-19T08:08:30;101413.78;;;24.62;72.49
30584;BME280;17357;59.404;18.414;2022-08-19T08:11:03;101422.72;;;24.64;72.30
30584;BME280;17357;59.404;18.414;2022-08-19T08:13:28;101423.53;;;24.64;72.54
30584;BME280;17357;59.404;18.414;2022-08-19T08:15:53;101422.31;;;24.65;72.85
30584;BME280;17357;59.404;18.414;2022-08-19T08:18:19;101408.97;;;24.66;73.16
30584;BME280;17357;59.404;18.414;2022-08-19T08:20:45;101418.28;;;24.66;73.39
30584;BME280;17357;59.404;18.414;2022-08-19T08:23:10;101416.66;;;24.65;73.27
30584;BME280;17357;59.404;18.414;2022-08-19T08:25:50;101404.13;;;24.66;73.38
30584;BME280;17357;59.404;18.414;2022-08-19T08:28:17;101404.16;;;24.70;73.51
30584;BME280;17357;59.404;18.414;2022-08-19T08:30:42;101410.72;;;24.77;73.05
30584;BME280;17357;59.404;18.414;2022-08-19T08:33:09;101404.69;;;24.79;73.36
30584;BME280;17357;59.404;18.414;2022-08-19T08:35:35;101404.22;;;24.73;73.40
30584;BME280;17357;59.404;18.414;2022-08-19T08:38:01;101412.34;;;24.75;72.70
30584;BME280;17357;59.404;18.414;2022-08-19T08:43:20;101415.47;;;24.10;67.40
30584;BME280;17357;59.404;18.414;2022-08-19T08:45:55;101413.56;;;23.91;65.32
30584;BME280;17357;59.404;18.414;2022-08-19T08:48:34;101407.28;;;23.79;63.30
30584;BME280;17357;59.404;18.414;2022-08-19T08:51:03;101406.03;;;23.76;62.49
30584;BME280;17357;59.404;18.414;2022-08-19T08:53:30;101413.25;;;23.73;62.07
30584;BME280;17357;59.404;18.414;2022-08-19T08:55:56;101420.81;;;23.66;61.49
30584;BME280;17357;59.404;18.414;2022-08-19T08:58:30;101418.69;;;23.59;61.59
30584;BME280;17357;59.404;18.414;2022-08-19T09:00:57;101418.25;;;23.57;61.21
30584;BME280;17357;59.404;18.414;2022-08-19T09:03:27;101415.34;;;23.54;60.92
30584;BME280;17357;59.404;18.414;2022-08-19T09:05:59;101416.13;;;23.51;60.88
30584;BME280;17357;59.404;18.414;2022-08-19T09:10:53;101406.34;;;23.48;60.81
30584;BME280;17357;59.404;18.414;2022-08-19T09:16:20;101402.13;;;23.39;60.26
30584;BME280;17357;59.404;18.414;2022-08-19T09:18:57;101404.56;;;23.40;60.52
30584;BME280;17357;59.404;18.414;2022-08-19T09:21:24;101399.34;;;23.42;60.38
30584;BME280;17357;59.404;18.414;2022-08-19T09:23:51;101387.97;;;23.39;60.66
30584;BME280;17357;59.404;18.414;2022-08-19T09:26:20;101400.47;;;23.38;60.58
30584;BME280;17357;59.404;18.414;2022-08-19T09:28:47;101389.91;;;23.34;61.23
30584;BME280;17357;59.404;18.414;2022-08-19T09:31:16;101390.78;;;23.39;61.57
30584;BME280;17357;59.404;18.414;2022-08-19T09:33:42;101402.56;;;23.41;61.57
30584;BME280;17357;59.404;18.414;2022-08-19T09:36:17;101402.13;;;23.39;61.72
30584;BME280;17357;59.404;18.414;2022-08-19T09:38:44;101401.28;;;23.38;62.34
30584;BME280;17357;59.404;18.414;2022-08-19T09:41:16;101402.13;;;23.39;62.49
30584;BME280;17357;59.404;18.414;2022-08-19T09:43:45;101399.75;;;23.41;62.41
30584;BME280;17357;59.404;18.414;2022-08-19T09:46:10;101395.63;;;23.38;62.50
30584;BME280;17357;59.404;18.414;2022-08-19T09:48:37;101398.09;;;23.40;62.69
30584;BME280;17357;59.404;18.414;2022-08-19T09:51:08;101396.50;;;23.42;62.81
30584;BME280;17357;59.404;18.414;2022-08-19T09:53:35;101391.66;;;23.43;62.79
30584;BME280;17357;59.404;18.414;2022-08-19T09:56:01;101388.69;;;23.35;62.95
30584;BME280;17357;59.404;18.414;2022-08-19T09:58:27;101389.97;;;23.38;62.85
30584;BME280;17357;59.404;18.414;2022-08-19T10:00:55;101394.06;;;23.41;62.77
30584;BME280;17357;59.404;18.414;2022-08-19T10:03:20;101387.16;;;23.38;62.67
30584;BME280;17357;59.404;18.414;2022-08-19T10:05:46;101372.16;;;23.38;62.71
30584;BME280;17357;59.404;18.414;2022-08-19T10:08:19;101382.31;;;23.39;62.65
30584;BME280;17357;59.404;18.414;2022-08-19T10:10:45;101383.03;;;23.35;62.74
30584;BME280;17357;59.404;18.414;2022-08-19T10:13:11;101372.94;;;23.34;62.88
30584;BME280;17357;59.404;18.414;2022-08-19T10:15:37;101379.91;;;23.41;63.49
30584;BME280;17357;59.404;18.414;2022-08-19T10:18:06;101381.13;;;23.40;63.47
30584;BME280;17357;59.404;18.414;2022-08-19T10:20:31;101379.47;;;23.39;63.94
30584;BME280;17357;59.404;18.414;2022-08-19T10:22:57;101373.00;;;23.38;64.04
30584;BME280;17357;59.404;18.414;2022-08-19T10:25:24;101379.47;;;23.39;63.15
30584;BME280;17357;59.404;18.414;2022-08-19T10:27:51;101372.50;;;23.32;63.12
30584;BME280;17357;59.404;18.414;2022-08-19T10:30:16;101378.59;;;23.34;62.98
30584;BME280;17357;59.404;18.414;2022-08-19T10:32:41;101375.38;;;23.36;62.54
30584;BME280;17357;59.404;18.414;2022-08-19T10:35:07;101377.78;;;23.34;62.22
30584;BME280;17357;59.404;18.414;2022-08-19T10:37:34;101374.56;;;23.35;62.21
30584;BME280;17357;59.404;18.414;2022-08-19T10:40:03;101370.94;;;23.35;62.00
30584;BME280;17357;59.404;18.414;2022-08-19T10:42:30;101361.63;;;23.34;61.86
30584;BME280;17357;59.404;18.414;2022-08-19T10:44:56;101353.88;;;23.31;61.69
30584;BME280;17357;59.404;18.414;2022-08-19T10:47:22;101349.03;;;23.32;61.73
30584;BME280;17357;59.404;18.414;2022-08-19T10:49:49;101363.19;;;23.32;61.71
30584;BME280;17357;59.404;18.414;2022-08-19T10:52:32;101362.72;;;23.30;61.80
30584;BME280;17357;59.404;18.414;2022-08-19T10:55:02;101351.84;;;23.32;61.84
30584;BME280;17357;59.404;18.414;2022-08-19T10:57:46;101348.56;;;23.30;61.95
30584;BME280;17357;59.404;18.414;2022-08-19T11:00:12;101353.03;;;23.31;61.68
30584;BME280;17357;59.404;18.414;2022-08-19T11:02:38;101350.63;;;23.29;61.58
30584;BME280;17357;59.404;18.414;2022-08-19T11:05:04;101350.63;;;23.29;61.68
30584;BME280;17357;59.404;18.414;2022-08-19T11:07:30;101348.19;;;23.31;61.23
30584;BME280;17357;59.404;18.414;2022-08-19T11:09:55;101340.53;;;23.32;61.30
30584;BME280;17357;59.404;18.414;2022-08-19T11:12:21;101358.78;;;23.34;61.59
30584;BME280;17357;59.404;18.414;2022-08-19T11:14:46;101364.00;;;23.32;61.79
30584;BME280;17357;59.404;18.414;2022-08-19T11:17:12;101362.81;;;23.33;61.74
30584;BME280;17357;59.404;18.414;2022-08-19T11:19:39;101353.50;;;23.33;61.79
30584;BME280;17357;59.404;18.414;2022-08-19T11:22:07;101355.06;;;23.30;61.89
30584;BME280;17357;59.404;18.414;2022-08-19T11:24:33;101339.72;;;23.31;62.08
30584;BME280;17357;59.404;18.414;2022-08-19T11:27:05;101348.97;;;23.28;62.12
30584;BME280;17357;59.404;18.414;2022-08-19T11:29:32;101347.38;;;23.31;61.91
30584;BME280;17357;59.404;18.414;2022-08-19T11:31:57;101340.91;;;23.30;62.38
30584;BME280;17357;59.404;18.414;2022-08-19T11:34:25;101351.03;;;23.31;62.32
30584;BME280;17357;59.404;18.414;2022-08-19T11:36:52;101351.03;;;23.31;62.17
30584;BME280;17357;59.404;18.414;2022-08-19T11:39:21;101350.97;;;23.28;62.46
30584;BME280;17357;59.404;18.414;2022-08-19T11:41:47;101336.47;;;23.29;62.22
30584;BME280;17357;59.404;18.414;2022-08-19T11:44:13;101339.28;;;23.29;62.31
30584;BME280;17357;59.404;18.414;2022-08-19T11:46:40;101340.50;;;23.28;62.60
30584;BME280;17357;59.404;18.414;2022-08-19T11:49:06;101330.34;;;23.27;62.48
30584;BME280;17357;59.404;18.414;2022-08-19T11:51:32;101354.22;;;23.30;62.72
30584;BME280;17357;59.404;18.414;2022-08-19T11:53:59;101350.22;;;23.31;62.53
30584;BME280;17357;59.404;18.414;2022-08-19T11:56:26;101348.56;;;23.30;62.73
30584;BME280;17357;59.404;18.414;2022-08-19T11:58:53;101341.72;;;23.31;62.76
30584;BME280;17357;59.404;18.414;2022-08-19T12:01:20;101334.06;;;23.31;62.82
30584;BME280;17357;59.404;18.414;2022-08-19T12:03:48;101346.97;;;23.29;62.79
30584;BME280;17357;59.404;18.414;2022-08-19T12:06:24;101345.75;;;23.30;62.31
30584;BME280;17357;59.404;18.414;2022-08-19T12:08:52;101350.16;;;23.27;62.76
30584;BME280;17357;59.404;18.414;2022-08-19T12:11:19;101352.63;;;23.29;62.57
30584;BME280;17357;59.404;18.414;2022-08-19T12:13:44;101346.56;;;23.30;62.63
30584;BME280;17357;59.404;18.414;2022-08-19T12:16:17;101342.50;;;23.28;62.36
30584;BME280;17357;59.404;18.414;2022-08-19T12:18:43;101346.16;;;23.28;62.59
30584;BME280;17357;59.404;18.414;2022-08-19T12:21:12;101350.16;;;23.27;62.44
30584;BME280;17357;59.404;18.414;2022-08-19T12:23:39;101344.50;;;23.27;62.80
30584;BME280;17357;59.404;18.414;2022-08-19T12:26:05;101351.81;;;23.28;62.75
30584;BME280;17357;59.404;18.414;2022-08-19T12:28:31;101345.38;;;23.31;62.95
30584;BME280;17357;59.404;18.414;2022-08-19T12:30:56;101353.88;;;23.31;63.25
30584;BME280;17357;59.404;18.414;2022-08-19T12:33:22;101349.78;;;23.29;63.39
30584;BME280;17357;59.404;18.414;2022-08-19T12:35:50;101348.97;;;23.28;63.55
30584;BME280;17357;59.404;18.414;2022-08-19T12:38:16;101354.22;;;23.30;63.62
30584;BME280;17357;59.404;18.414;2022-08-19T12:40:41;101356.28;;;23.29;63.51
30584;BME280;17357;59.404;18.414;2022-08-19T12:43:10;101348.97;;;23.28;63.29
30584;BME280;17357;59.404;18.414;2022-08-19T12:45:36;101347.78;;;23.29;62.87
30584;BME280;17357;59.404;18.414;2022-08-19T12:48:02;101354.19;;;23.26;62.76
30584;BME280;17357;59.404;18.414;2022-08-19T12:50:27;101349.34;;;23.27;62.39